Latest Coastal Weather Observations for St Helens

IDT60701

Issued at 8:16 pm EDT Sunday 29 March 2015 (issued every 10 minutes, with the page automatically refreshed every 10 minutes)

About coastal observations | Map of coastal stations | Coastal observations for TAS | Marine services | Other Formats
Station Details ID: 092120 Name: ST HELENS AERODROME Lat: -41.34 Lon: 148.28 Height: 48.0 m
Data from the previous 72 hours. | See also: Recent months at St Helens
Date/Time
EDT
Temp

°C
Wind Pressure Rain
since 9am
mm
Weather Cloud Vis
km
Sea
Height
m
Swell
Dir
 
Speed
knots
Gust
knots
hPa Trend Height
m
Period
s
Dir
29/08:00pm 16.4 WNW 7 12 1018.0 - 0.0 - - 10 - - - -
29/07:30pm 16.7 W 6 12 1017.6 - 0.0 - - 10 - - - -
29/07:00pm 17.0 W 8 15 1017.4 - 0.0 - - 10 - - - -
29/06:30pm 17.9 W 8 13 1017.1 - 0.0 - - 10 - - - -
29/06:00pm 18.8 W 8 17 1016.9 - 0.0 - - 10 - - - -
29/05:30pm 19.3 W 8 17 1016.6 - 0.0 - - 10 - - - -
29/05:00pm 19.4 W 8 19 1016.5 - 0.0 - - 10 - - - -
29/04:30pm 19.8 W 10 17 1016.3 - 0.0 - - 10 - - - -
29/04:00pm 19.7 W 10 16 1016.3 - 0.0 - - 10 - - - -
29/03:30pm 19.9 W 10 17 1016.4 - 0.0 - - 10 - - - -
29/03:00pm 19.9 W 11 21 1016.4 - 0.0 - - 10 - - - -
29/02:30pm 19.5 W 13 24 1016.1 - 0.0 - - 10 - - - -
29/02:00pm 18.9 W 11 24 1016.1 - 0.0 - - 10 - - - -
29/01:30pm 19.2 WSW 15 26 1015.8 - 0.0 - - 10 - - - -
29/01:00pm 18.9 W 15 29 1016.0 - 0.0 - - 10 - - - -
29/12:30pm 18.6 WSW 15 26 1016.3 - 0.0 - - 10 - - - -
29/12:24pm 18.6 W 15 26 1016.2 - 0.0 - - 10 - - - -
29/12:00pm 18.4 W 13 23 1016.6 - 0.0 - - 10 - - - -
29/11:30am 18.1 W 11 21 1016.9 - 0.0 - - 10 - - - -
29/11:00am 17.6 W 12 22 1017.1 - 0.0 - - 10 - - - -
29/10:30am 17.1 W 11 22 1017.2 - 0.0 - - 10 - - - -
29/10:00am 16.3 W 8 14 1017.2 - 0.0 - - 10 - - - -
29/09:30am 15.7 W 10 18 1016.7 - 0.0 - - 10 - - - -
29/09:00am 15.1 W 10 18 1016.4 - 0.0 - - 10 - - - -
29/08:30am 14.3 W 9 16 1016.6 - 0.0 - - 10 - - - -
29/08:00am 13.6 WNW 10 17 1016.6 - 0.0 - - 10 - - - -
29/07:30am 13.2 WNW 10 14 1016.8 - 0.0 - - 10 - - - -
29/07:00am 13.3 W 10 16 1016.4 - 0.0 - - 10 - - - -
29/06:30am 13.3 WNW 10 18 1016.0 - 0.0 - - 10 - - - -
29/06:00am 12.7 WSW 12 22 1016.3 - 0.0 - - 10 - - - -
29/05:30am 12.2 WSW 10 18 1016.0 - 0.0 - - 10 - - - -
29/05:00am 12.3 W 11 18 1015.7 - 0.0 - - 10 - - - -
29/04:30am 12.3 W 10 20 1015.5 - 0.0 - - 10 - - - -
29/04:00am 12.3 WNW 8 14 1015.7 - 0.0 - - 10 - - - -
29/03:30am 12.3 WNW 9 14 1015.7 - 0.0 - - 10 - - - -
29/03:00am 12.5 WNW 7 13 1016.1 - 0.0 - - 10 - - - -
29/02:30am 12.8 WNW 7 11 1016.6 - 0.0 - - 10 - - - -
29/02:00am 13.1 W 8 16 1016.6 - 0.0 - - 10 - - - -
29/01:30am 13.1 W 7 16 1016.8 - 0.0 - - 10 - - - -
29/01:00am 12.9 W 6 11 1016.9 - 0.0 - - 10 - - - -
29/12:30am 12.6 WNW 5 8 1017.4 - 0.0 - - 10 - - - -
29/12:00am 12.6 WNW 5 8 1017.7 - 0.0 - - 10 - - - -
 
Date/Time
EDT
Temp

°C
Wind Pressure Rain
since 9am
mm
Weather Cloud Vis
km
Sea
Height
m
Swell
Dir
 
Speed
knots
Gust
knots
hPa Trend Height
m
Period
s
Dir
28/11:30pm 12.2 WNW 4 7 1017.9 - 0.0 - - 10 - - - -
28/11:00pm 12.6 NW 4 6 1018.1 - 0.0 - - 10 - - - -
28/10:30pm 13.1 WNW 4 6 1018.3 - 0.0 - - 10 - - - -
28/10:00pm 13.7 WNW 5 7 1018.4 - 0.0 - - 10 - - - -
28/09:30pm 13.3 WSW 4 7 1018.5 - 0.0 - - 10 - - - -
28/09:00pm 14.0 W 4 7 1018.3 - 0.0 - - 10 - - - -
28/08:30pm 14.4 WNW 3 5 1018.1 - 0.0 - - 10 - - - -
28/08:00pm 15.0 WNW 5 8 1018.0 - 0.0 - - 10 - - - -
28/07:30pm 15.8 W 5 9 1017.8 - 0.0 - - 10 - - - -
28/07:00pm 16.9 WNW 6 11 1017.9 - 0.0 - - 10 - - - -
28/06:30pm 18.0 NW 6 10 1017.8 - 0.0 - - 10 - - - -
28/06:00pm 18.6 N 6 9 1017.6 - 0.0 - - 10 - - - -
28/05:30pm 19.9 WNW 6 11 1017.4 - 0.0 - Partly cloudy 10 - - - -
28/05:00pm 20.1 NW 6 9 1017.6 - 0.0 - Partly cloudy 10 - - - -
28/04:30pm 19.7 N 8 11 1017.7 - 0.0 - Partly cloudy 10 - - - -
28/04:00pm 19.8 N 8 12 1018.0 - 0.0 - Partly cloudy 10 - - - -
28/03:30pm 19.9 NW 7 11 1018.2 - 0.0 - Partly cloudy 10 - - - -
28/03:00pm 19.8 NW 6 11 1018.4 - 0.0 - Partly cloudy 10 - - - -
28/02:30pm 19.2 NNE 3 7 1018.9 - 0.0 - Partly cloudy 10 - - - -
28/02:00pm 19.2 NE 8 14 1019.5 - 0.0 - - 10 - - - -
28/01:30pm 18.1 NE 10 15 1020.1 - 0.0 - - 10 - - - -
28/01:00pm 17.7 ENE 9 13 1020.5 - 0.0 - - 10 - - - -
28/12:30pm 16.8 ENE 10 13 1020.9 - 0.0 - - 10 - - - -
28/12:00pm 16.8 NE 8 11 1021.2 - 0.0 - - 10 - - - -
28/11:30am 16.5 NE 7 10 1021.5 - 0.0 - - 10 - - - -
28/11:00am 16.6 N 4 7 1021.6 - 0.0 - - 10 - - - -
28/10:30am 15.2 N 3 5 1021.8 - 0.0 - - 10 - - - -
28/10:00am 13.6 NW 2 4 1021.9 - 0.0 - - 10 - - - -
28/09:30am 11.9 NW 4 6 1021.8 - 0.0 - - 10 - - - -
28/09:00am 10.4 NW 6 7 1021.7 - 2.2 - - 10 - - - -
28/08:30am 9.0 NW 6 7 1021.6 - 2.2 - - 10 - - - -
28/08:00am 8.5 NNW 5 7 1021.4 - 2.2 - - 10 - - - -
28/07:30am 8.6 NNW 6 7 1021.1 - 2.2 - - 10 - - - -
28/07:00am 9.1 NNW 5 7 1020.9 - 2.2 - - 10 - - - -
28/06:30am 10.6 NW 5 7 1020.5 - 2.2 - - 10 - - - -
28/06:00am 10.4 NNW 6 9 1020.3 - 2.2 - - 10 - - - -
28/05:30am 12.2 WSW 6 11 1020.0 - 2.2 - - 10 - - - -
28/05:00am 11.9 SW 6 11 1019.7 - 2.2 - - 10 - - - -
28/04:30am 12.1 SW 8 12 1019.5 - 2.2 - - 10 - - - -
28/04:00am 12.0 SW 8 14 1019.6 - 2.2 - - 10 - - - -
28/03:30am 11.6 SW 7 11 1019.4 - 2.2 - - 10 - - - -
28/03:00am 11.8 SW 5 9 1019.8 - 2.2 - - 10 - - - -
28/02:30am 11.9 SSW 8 13 1019.7 - 2.2 - - 10 - - - -
28/02:00am 11.5 SW 5 8 1019.8 - 2.2 - - 10 - - - -
28/01:30am 11.7 SW 6 9 1019.6 - 2.2 - - 10 - - - -
28/01:00am 11.7 WSW 4 6 1019.4 - 2.2 - - 10 - - - -
28/12:30am 12.7 WNW 4 7 1019.4 - 2.2 - - 10 - - - -
28/12:00am 12.4 SW 6 9 1019.1 - 2.2 - - 10 - - - -
 
Date/Time
EDT
Temp

°C
Wind Pressure Rain
since 9am
mm
Weather Cloud Vis
km
Sea
Height
m
Swell
Dir
 
Speed
knots
Gust
knots
hPa Trend Height
m
Period
s
Dir
27/11:30pm 12.8 SSW 8 13 1018.9 - 2.2 - - 10 - - - -
27/11:00pm 13.2 SSW 9 13 1018.8 - 2.2 - - 10 - - - -
27/10:30pm 13.2 SSW 8 15 1018.8 - 2.2 - Partly cloudy 10 - - - -
27/10:00pm 13.6 SSW 6 12 1018.7 - 2.2 - Partly cloudy 10 - - - -
27/09:30pm 13.6 SW 6 10 1018.4 - 2.2 - Partly cloudy 10 - - - -
27/09:00pm 13.8 SW 8 11 1017.9 - 2.2 - Partly cloudy 10 - - - -
27/08:30pm 13.6 SW 3 5 1017.3 - 2.2 - Cloudy 10 - - - -
27/08:00pm 12.8 SSW 4 5 1016.9 - 2.2 - Partly cloudy 10 - - - -
27/07:30pm 13.0 SW 3 4 1016.5 - 2.2 - Partly cloudy 10 - - - -
27/07:00pm 13.8 SSW 5 8 1015.8 - 2.2 - - 10 - - - -
27/06:30pm 13.9 S 4 7 1015.3 - 2.2 - Partly cloudy 10 - - - -
27/06:00pm 13.9 SSW 6 10 1014.8 - 2.2 - Partly cloudy 10 - - - -
27/05:30pm 14.5 SSW 10 20 1014.2 - 2.2 - Partly cloudy 10 - - - -
27/05:00pm 15.8 S 12 20 1013.6 - 2.2 - Partly cloudy 10 - - - -
27/04:30pm 13.6 SSW 10 19 1013.1 - 2.0 - Partly cloudy 10 - - - -
27/04:00pm 14.4 SSW 10 18 1012.8 - 2.0 - Partly cloudy - - - - -
27/03:30pm 16.5 SSW 8 14 1012.5 - 2.0 - Partly cloudy - - - - -
27/03:00pm 14.6 S 5 9 1012.4 - 2.0 - Partly cloudy - - - - -
27/02:30pm 14.9 SSW 7 13 1012.3 - 1.8 - Partly cloudy - - - - -
27/02:00pm 13.1 SW 4 7 1012.4 - 1.8 - Cloudy - - - - -
27/01:30pm 12.7 SW 7 12 1012.4 - 1.8 - Partly cloudy - - - - -
27/01:00pm 12.6 SSW 9 15 1012.5 - 1.8 - Partly cloudy - - - - -
27/12:30pm 11.0 SSW 9 14 1012.4 - 1.8 - Partly cloudy - - - - -
27/12:00pm 10.4 SW 10 16 1012.4 - 1.0 - Partly cloudy - - - - -
27/11:30am 11.5 SW 11 23 1012.2 - 0.0 - Partly cloudy - - - - -
27/11:00am 13.4 SW 7 13 1011.8 - 0.0 - Partly cloudy - - - - -
27/10:30am 13.3 SW 7 13 1011.6 - 0.0 - Partly cloudy - - - - -
27/10:00am 13.4 SW 8 14 1011.2 - 0.0 - - - - - - -
27/09:30am 13.9 SSW 10 16 1011.0 - 0.0 - - - - - - -
27/09:00am 12.8 SSW 10 18 1010.6 - 0.0 - - - - - - -
27/08:30am 11.8 SW 9 14 1010.4 - 0.0 - - - - - - -
27/08:00am 11.0 SSW 8 14 1010.2 - 0.0 - - - - - - -
27/07:30am 10.5 SSW 9 15 1009.9 - 0.0 - - - - - - -
27/07:00am 10.0 SSW 7 13 1009.7 - 0.0 - - - - - - -
27/06:30am 9.9 SW 5 9 1009.4 - 0.0 - - - - - - -
27/06:00am 10.3 SSW 7 12 1009.4 - 0.0 - - - - - - -
27/05:30am 10.7 SSW 6 10 1009.1 - 0.0 - - - - - - -
27/05:00am 10.9 SSW 8 14 1008.9 - 0.0 - - - - - - -
27/04:30am 10.4 SSW 7 11 1008.8 - 0.0 - - - - - - -
27/04:00am 10.3 SSW 6 9 1008.6 - 0.0 - - - - - - -
27/03:30am 10.6 S 7 12 1008.6 - 0.0 - - - - - - -
27/03:00am 9.5 S 7 11 1008.8 - 0.0 - - - - - - -
27/02:30am 9.7 S 7 10 1008.8 - 0.0 - - - - - - -
27/02:00am 9.6 S 7 11 1009.3 - 0.0 - Partly cloudy - - - - -
27/01:30am 9.1 SSW 4 5 1009.8 - 0.0 - Partly cloudy - - - - -
27/01:00am 9.3 S 5 7 1010.2 - 0.0 - Partly cloudy - - - - -
27/12:30am 9.3 SSW 2 4 1010.4 - 0.0 - Cloudy - - - - -
27/12:00am 10.0 CALM 0 0 1010.9 - 0.0 - Partly cloudy - - - - -
 
Date/Time
EDT
Temp

°C
Wind Pressure Rain
since 9am
mm
Weather Cloud Vis
km
Sea
Height
m
Swell
Dir
 
Speed
knots
Gust
knots
hPa Trend Height
m
Period
s
Dir
26/11:30pm 9.5 NNW 1 4 1011.3 - 0.0 - Partly cloudy - - - - -
26/11:00pm 9.5 ESE 2 4 1011.9 - 0.0 - Partly cloudy - - - - -
26/10:30pm 9.6 SSE 1 4 1012.1 - 0.0 - Partly cloudy - - - - -
26/10:00pm 10.4 NW 6 8 1012.4 - 0.0 - - - - - - -
26/09:30pm 10.2 NW 4 7 1012.2 - 0.0 - - - - - - -
26/09:00pm 10.2 W 4 7 1012.1 - 0.0 - - - - - - -
26/08:30pm 11.1 WNW 6 9 1012.0 - 0.0 - - - - - - -

Other Formats:

Comma delimited format used in spreadsheet applications
http://www.bom.gov.au/fwo/IDT60701/IDT60701.95981.axf

JavaScript Object Notation format (JSON) in row-major order
http://www.bom.gov.au/fwo/IDT60701/IDT60701.95981.json